Bookmark and Share
Track history (hours):
 

Fuji Maru

Last reported at 2014-Apr-23 15:19 UTC. Time now 2014-Apr-23 15:43 UTC.
Position N 35°39' E 139°46'.

Length 38 m; draft 4.4 m.

Type: Tug. MMSI: 431001102.

NotesDate/timePositionNaut miles runAvg speedWind from/ knotsBaromVisibWave heightAir tempDewpointWater temp
2014-Apr-23 15:19N 35°39' E 139°46'0 0.0
2014-Apr-23 14:31N 35°39' E 139°46'0 0.0
2014-Apr-23 13:31N 35°39' E 139°46'0 0.0
2014-Apr-23 12:31N 35°39' E 139°46'0 0.0
2014-Apr-23 11:31N 35°39' E 139°46'0 0.0
2014-Apr-23 10:28N 35°39' E 139°46'0 0.0
2014-Apr-23 09:31N 35°39' E 139°46'0 0.0
2014-Apr-23 08:28N 35°39' E 139°46'0 0.0
2014-Apr-23 07:28N 35°39' E 139°46'0 0.0
2014-Apr-23 06:16N 35°39' E 139°46'0 0.0
2014-Apr-23 05:28N 35°39' E 139°46'0 0.0
2014-Apr-23 04:31N 35°39' E 139°46'0 0.0
2014-Apr-23 03:31N 35°39' E 139°46'0 0.0
2014-Apr-23 02:31N 35°39' E 139°46'0 0.0
2014-Apr-23 01:31N 35°39' E 139°46'0 0.0
2014-Apr-23 00:31N 35°39' E 139°46'0 0.0
2014-Apr-22 23:31N 35°39' E 139°46'4 3.5
2014-Apr-22 22:31N 35°35' E 139°47'2 2.4
2014-Apr-22 21:33N 35°34' E 139°49'2 2.0
2014-Apr-22 20:32N 35°36' E 139°48'1 1.4
2014-Apr-22 19:33N 35°36' E 139°46'2 2.3
2014-Apr-22 18:29N 35°39' E 139°46'0 0.0
2014-Apr-22 17:32N 35°39' E 139°46'0 0.0
2014-Apr-22 16:26N 35°39' E 139°46'0 0.0
2014-Apr-22 15:29N 35°39' E 139°46'0 0.0
2014-Apr-22 14:32N 35°39' E 139°46'0 0.0
2014-Apr-22 13:26N 35°39' E 139°46'0 0.0
2014-Apr-22 12:32N 35°39' E 139°46'0 0.0
2014-Apr-22 11:32N 35°39' E 139°46'0 0.0
2014-Apr-22 10:23N 35°39' E 139°46'0 0.0
2014-Apr-22 09:26N 35°39' E 139°46'0 0.0
2014-Apr-22 08:17N 35°39' E 139°46'0 0.0
2014-Apr-22 07:26N 35°39' E 139°46'0 0.0
2014-Apr-22 06:23N 35°39' E 139°46'0 0.0
2014-Apr-22 05:32N 35°39' E 139°46'0 0.0
2014-Apr-22 04:08N 35°39' E 139°46'0 0.0
2014-Apr-22 03:32N 35°39' E 139°46'0 0.0
2014-Apr-22 02:32N 35°39' E 139°46'0 0.0
2014-Apr-22 01:32N 35°39' E 139°46'0 0.0
2014-Apr-22 00:32N 35°39' E 139°46'0 0.0
2014-Apr-21 23:32N 35°39' E 139°46'0 0.0
2014-Apr-21 22:29N 35°39' E 139°46'0 0.0
2014-Apr-21 21:26N 35°39' E 139°46'0 0.0
2014-Apr-21 20:32N 35°39' E 139°46'0 0.0
2014-Apr-21 19:32N 35°39' E 139°46'0 0.0
2014-Apr-21 18:32N 35°39' E 139°46'0 0.0
2014-Apr-21 17:32N 35°39' E 139°46'0 0.0
2014-Apr-21 16:32N 35°39' E 139°46'0 0.0
2014-Apr-21 15:17N 35°39' E 139°46'0 0.0
2014-Apr-21 14:29N 35°39' E 139°46'0 0.0
2014-Apr-21 13:29N 35°39' E 139°46'0 0.0
2014-Apr-21 12:32N 35°39' E 139°46'0 0.0
2014-Apr-21 11:32N 35°39' E 139°46'0 0.0
2014-Apr-21 10:32N 35°39' E 139°46'0 0.0
2014-Apr-21 09:29N 35°39' E 139°46'0 0.0
2014-Apr-21 08:29N 35°39' E 139°46'0 0.0
2014-Apr-21 07:29N 35°39' E 139°46'0 0.0
2014-Apr-21 06:32N 35°39' E 139°46'0 0.0
2014-Apr-21 05:32N 35°39' E 139°46'0 0.0
2014-Apr-21 04:29N 35°39' E 139°46'0 0.0
2014-Apr-21 03:32N 35°39' E 139°46'0 0.0
2014-Apr-21 02:32N 35°39' E 139°46'0 0.0
2014-Apr-21 01:32N 35°39' E 139°46'0 0.0
2014-Apr-21 00:32N 35°39' E 139°46'0 0.0
2014-Apr-20 23:32N 35°39' E 139°46'0 0.0
2014-Apr-20 22:32N 35°39' E 139°46'0 0.0
2014-Apr-20 21:32N 35°39' E 139°46'0 0.0
2014-Apr-20 20:32N 35°39' E 139°46'0 0.0
2014-Apr-20 19:32N 35°39' E 139°46'0 0.0
2014-Apr-20 18:32N 35°39' E 139°46'3 2.6
2014-Apr-20 17:33N 35°36' E 139°46'2 1.7
2014-Apr-20 16:31N 35°38' E 139°46'0 0.0
2014-Apr-20 15:25N 35°38' E 139°46'0 0.0
2014-Apr-20 14:22N 35°38' E 139°46'0 0.0
2014-Apr-20 13:28N 35°38' E 139°46'1 1.6
2014-Apr-20 12:33N 35°37' E 139°46'0 0.4
2014-Apr-20 11:33N 35°36' E 139°46'3 3.2
2014-Apr-20 10:33N 35°34' E 139°49'2 1.9
2014-Apr-20 09:20N 35°35' E 139°47'2 2.7
2014-Apr-20 08:34N 35°37' E 139°46'1 1.2
2014-Apr-20 07:24N 35°39' E 139°46'0 0.0
2014-Apr-20 06:30N 35°39' E 139°46'0 0.0
2014-Apr-20 05:33N 35°39' E 139°46'0 0.0
2014-Apr-20 04:33N 35°39' E 139°46'0 0.0
2014-Apr-20 03:33N 35°39' E 139°46'0 0.0
2014-Apr-20 02:27N 35°39' E 139°46'0 0.0
2014-Apr-20 01:33N 35°39' E 139°46'0 0.0
2014-Apr-20 00:33N 35°39' E 139°46'0 0.0
2014-Apr-19 23:27N 35°39' E 139°46'3 3.5
2014-Apr-19 22:34N 35°36' E 139°47'1 0.3
2014-Apr-19 20:31N 35°36' E 139°47'3 2.4
2014-Apr-19 19:29N 35°39' E 139°46'0 0.0
2014-Apr-19 18:32N 35°39' E 139°46'0 0.0
2014-Apr-19 17:29N 35°39' E 139°46'0 0.0
2014-Apr-19 16:29N 35°39' E 139°46'0 0.0
2014-Apr-19 15:26N 35°39' E 139°46'0 0.0
2014-Apr-19 14:26N 35°39' E 139°46'0 0.0
2014-Apr-19 13:20N 35°39' E 139°46'0 0.0
2014-Apr-19 12:32N 35°39' E 139°46'0 0.0
2014-Apr-19 11:32N 35°39' E 139°46'0 0.0
2014-Apr-19 10:32N 35°39' E 139°46'0 0.0
2014-Apr-19 09:32N 35°39' E 139°46'0 0.0
2014-Apr-19 08:32N 35°39' E 139°46'0 0.0
2014-Apr-19 07:26N 35°39' E 139°46'0 0.0
2014-Apr-19 06:29N 35°39' E 139°46'0 0.0
2014-Apr-19 05:32N 35°39' E 139°46'0 0.0
2014-Apr-19 04:32N 35°39' E 139°46'0 0.0
2014-Apr-19 03:32N 35°39' E 139°46'0 0.0
2014-Apr-19 02:20N 35°39' E 139°46'0 0.0
2014-Apr-19 01:32N 35°39' E 139°46'0 0.0
2014-Apr-19 00:32N 35°39' E 139°46'0 0.0
2014-Apr-18 23:29N 35°39' E 139°46'0 0.0
2014-Apr-18 22:29N 35°39' E 139°46'0 0.0
2014-Apr-18 21:32N 35°39' E 139°46'0 0.0
2014-Apr-18 20:26N 35°39' E 139°46'0 0.0
2014-Apr-18 19:29N 35°39' E 139°46'0 0.0
2014-Apr-18 18:32N 35°39' E 139°46'0 0.0
2014-Apr-18 17:23N 35°39' E 139°46'0 0.0
2014-Apr-18 16:32N 35°39' E 139°46'3 3.3
2014-Apr-18 15:33N 35°36' E 139°47'1 0.6
2014-Apr-18 14:33N 35°36' E 139°46'2 1.7
2014-Apr-18 13:25N 35°38' E 139°46'0 0.0
2014-Apr-18 12:31N 35°38' E 139°46'0 0.0
2014-Apr-18 11:33N 35°38' E 139°46'4 3.6
2014-Apr-18 10:33N 35°35' E 139°48'1 1.1
2014-Apr-18 09:34N 35°35' E 139°47'1 0.9
2014-Apr-18 08:33N 35°36' E 139°47'3 2.7
2014-Apr-18 07:33N 35°39' E 139°46'0 0.0
2014-Apr-18 06:33N 35°39' E 139°46'0 0.0
2014-Apr-18 05:33N 35°39' E 139°46'0 0.0
2014-Apr-18 04:24N 35°39' E 139°46'0 0.0
2014-Apr-18 03:33N 35°39' E 139°46'0 0.0
2014-Apr-18 02:30N 35°39' E 139°46'0 0.0
2014-Apr-18 01:33N 35°39' E 139°46'0 0.0
2014-Apr-18 00:27N 35°39' E 139°46'3 3.8
2014-Apr-17 23:33N 35°35' E 139°47'2 2.4
2014-Apr-17 22:33N 35°34' E 139°49'4 4.5
2014-Apr-17 21:33N 35°38' E 139°46'1 1.0
2014-Apr-17 20:26N 35°39' E 139°46'0 0.0
2014-Apr-17 19:32N 35°39' E 139°46'0 0.0
2014-Apr-17 18:26N 35°39' E 139°46'0 0.0
2014-Apr-17 17:29N 35°39' E 139°46'0 0.0
2014-Apr-17 16:32N 35°39' E 139°46'0 0.0
2014-Apr-17 15:32N 35°39' E 139°46'0 0.0
2014-Apr-17 14:29N 35°39' E 139°46'0 0.0
2014-Apr-17 13:29N 35°39' E 139°46'0 0.0
2014-Apr-17 12:32N 35°39' E 139°46'0 0.0
2014-Apr-17 11:29N 35°39' E 139°46'5 5.0
2014-Apr-17 10:34N 35°35' E 139°48'3 2.6
2014-Apr-17 09:33N 35°37' E 139°46'2 1.6
2014-Apr-17 08:30N 35°38' E 139°46'1 1.3
2014-Apr-17 07:33N 35°37' E 139°46'2 1.8
2014-Apr-17 06:32N 35°39' E 139°46'0 0.0
2014-Apr-17 05:32N 35°39' E 139°46'0 0.0
2014-Apr-17 04:29N 35°39' E 139°46'0 0.0
2014-Apr-17 03:29N 35°39' E 139°46'0 0.1
2014-Apr-17 02:32N 35°39' E 139°46'0 0.0
2014-Apr-17 01:29N 35°39' E 139°46'0 0.0
2014-Apr-17 00:29N 35°39' E 139°46'0 0.0
2014-Apr-16 23:32N 35°39' E 139°46'0 0.0
2014-Apr-16 22:32N 35°39' E 139°46'0 0.3
2014-Apr-16 21:33N 35°39' E 139°46'2 2.0
2014-Apr-16 20:33N 35°37' E 139°46'2 2.3
2014-Apr-16 19:32N 35°39' E 139°46'0 0.0
2014-Apr-16 18:29N 35°39' E 139°46'0 0.0
2014-Apr-16 17:32N 35°39' E 139°46'0 0.0
2014-Apr-16 16:29N 35°39' E 139°46'0 0.0
2014-Apr-16 15:17N 35°39' E 139°46'0 0.1
2014-Apr-16 14:32N 35°39' E 139°46'0 0.1
2014-Apr-16 13:26N 35°39' E 139°46'0 0.0
2014-Apr-16 12:32N 35°39' E 139°46'0 0.0
2014-Apr-16 11:26N 35°39' E 139°46'0 0.0
2014-Apr-16 10:29N 35°39' E 139°46'0 0.0
2014-Apr-16 09:23N 35°39' E 139°46'0 0.0
2014-Apr-16 08:29N 35°39' E 139°46'0 0.0
2014-Apr-16 07:23N 35°39' E 139°46'0 0.4
2014-Apr-16 06:26N 35°39' E 139°46'0 0.4
2014-Apr-16 05:32N 35°39' E 139°46'0 0.0
2014-Apr-16 04:29N 35°39' E 139°46'0 0.0
2014-Apr-16 03:32N 35°39' E 139°46'0 0.0
2014-Apr-16 02:29N 35°39' E 139°46'3 2.9
2014-Apr-16 01:27N 35°36' E 139°46'4 4.3
2014-Apr-16 00:33N 35°34' E 139°50'6 6.3
2014-Apr-15 23:33N 35°39' E 139°46'0 0.0
2014-Apr-15 22:24N 35°39' E 139°46'0 0.0
2014-Apr-15 21:24N 35°39' E 139°46'0 0.0
2014-Apr-15 20:33N 35°39' E 139°46'0 0.0
2014-Apr-15 19:27N 35°39' E 139°46'0 0.0
2014-Apr-15 18:27N 35°39' E 139°46'0 0.0
2014-Apr-15 17:15N 35°39' E 139°46'0 0.0
2014-Apr-15 16:33N 35°39' E 139°46'0 0.0
2014-Apr-15 15:33N 35°39' E 139°46'0 0.0
2014-Apr-15 14:24N 35°39' E 139°46'0 0.0
2014-Apr-15 12:33N 35°39' E 139°46'0 0.0
2014-Apr-15 10:33N 35°39' E 139°46'0 0.0
2014-Apr-15 09:33N 35°39' E 139°46'0 0.0
2014-Apr-15 08:33N 35°39' E 139°46'0 0.0
2014-Apr-15 07:33N 35°39' E 139°46'0 0.0
2014-Apr-15 05:30N 35°39' E 139°46'0 0.0
2014-Apr-15 03:30N 35°39' E 139°46'0 0.0
2014-Apr-15 00:33N 35°39' E 139°46'0 0.0
2014-Apr-14 22:33N 35°39' E 139°46'0 0.0
2014-Apr-14 21:30N 35°39' E 139°46'0 0.0
2014-Apr-14 20:33N 35°39' E 139°46'0 0.0
2014-Apr-14 19:33N 35°39' E 139°46'0 0.0
2014-Apr-14 18:30N 35°39' E 139°46'0 0.0
2014-Apr-14 17:33N 35°39' E 139°46'0 0.0
2014-Apr-14 16:33N 35°39' E 139°46'0 0.0
2014-Apr-14 14:33N 35°39' E 139°46'0 0.0
2014-Apr-14 13:30N 35°39' E 139°46'0 0.0
2014-Apr-14 11:33N 35°39' E 139°46'0 0.0
2014-Apr-14 10:33N 35°39' E 139°46'0 0.0
2014-Apr-14 09:33N 35°39' E 139°46'0 0.0
2014-Apr-14 08:33N 35°39' E 139°46'0 0.0
2014-Apr-14 07:33N 35°39' E 139°46'0 0.0
2014-Apr-14 06:33N 35°39' E 139°46'0 0.1
2014-Apr-14 05:33N 35°39' E 139°46'2 0.3
2014-Apr-13 22:31N 35°37' E 139°46'4 3.4
2014-Apr-13 21:28N 35°34' E 139°49'3 3.2
2014-Apr-13 20:33N 35°36' E 139°47'3 2.5
2014-Apr-13 19:32N 35°39' E 139°46'0 0.1
2014-Apr-13 18:29N 35°39' E 139°46'0 0.1
2014-Apr-13 17:23N 35°39' E 139°46'0 0.0
2014-Apr-13 16:29N 35°39' E 139°46'0 0.0
2014-Apr-13 15:32N 35°39' E 139°46'  

Dump ship's entire track history

sailing weather and tide predictions

Fuji Maru — JD2030 — position and weather